San Francisco, California
Current Conditions -  °F | °C
As of 6:56 PM on Saturday 22 Nov 2014 (Local Time) from KSFO Reporting Station
Scattered Clouds Scattered Clouds  
Wind Chill: 59°   Ceiling: Unl
Heat Index: 59°   Visibility: 10mi
Dew Point: 55°   Wind: 15mph
Humidity: 87%   Direction: 280°W
Pressure: 30.17"   Gusts: NA
Location:  37.78°N, 122.42°W
Report Text: KSFO 230256Z 28013KT 10SM SCT200 15/13 A3017 RMK AO2 SLP218 T01500128 53012
Loading
Personal Weather Stations






























Interactive Weather Map New forecast layout! Learn more

10-Day Weather Forecast

Advertisements
Track Severe Weather on mobile